JP-0082 weather

Ajicho Helipad
Ajicho, Kagawa Prefecture, Japan

Public forecast

Using degrees Celsius for public forecast. Weather courtesy of forecast.io.

Closest aviation weather report (METAR) to Ajicho Helipad

Closest report is Takamatsu Airport, 12.4 nm (23.0 km) SSW. Retrieved 2019/10/20 05:00 UTC (23 minutes ago):

RJOT 200500Z 02005KT 340V080 9999 FEW035 BKN/// 22/13 Q1018

Closest aviation forecast (TAF) to Ajicho Helipad

Closest forecast is Takamatsu Airport, 12.4 nm (23.0 km) SSW. Retrieved 2019-10-20 00:30 UTC (5 hours ago):

TAF TAF RJOT 192306Z 2000/2106 06006KT 9999 FEW020